Time;durP1;ratioP1;P1;durP2;ratioP2;P2;SDS_P1;SDS_P2;PMS_P1;PMS_P2;Temp;Humidity;BMP_temperature;BMP_pressure;BME280_temperature;BME280_humidity;BME280_pressure;Samples;Min_cycle;Max_cycle;Signal;HPM_P1;HPM_P2
2022/01/12 00:00:25;;;;;;;4.22;3.25;;;15.90;43.40;;;;;;5152779;27;20103;-66
2022/01/12 00:02:51;;;;;;;4.18;3.78;;;15.90;43.40;;;;;;5153129;27;20038;-66
2022/01/12 00:05:18;;;;;;;5.75;4.43;;;15.90;43.40;;;;;;5171549;27;20471;-66
2022/01/12 00:07:46;;;;;;;4.90;3.92;;;15.90;43.40;;;;;;5171512;27;20117;-66
2022/01/12 00:10:12;;;;;;;4.80;3.13;;;15.90;43.40;;;;;;5171374;27;20035;-66
2022/01/12 00:12:37;;;;;;;4.32;3.70;;;15.90;43.40;;;;;;5152609;27;20038;-67
2022/01/12 00:15:03;;;;;;;5.95;3.88;;;15.90;43.40;;;;;;5152756;27;20043;-66
2022/01/12 00:17:29;;;;;;;4.35;3.60;;;15.90;43.50;;;;;;5171178;27;20470;-65
2022/01/12 00:19:55;;;;;;;4.13;3.60;;;15.90;43.50;;;;;;5152492;27;20163;-67
2022/01/12 00:22:20;;;;;;;5.05;3.63;;;15.90;43.50;;;;;;5171275;27;20026;-66
2022/01/12 00:33:10;;;;;;;4.60;3.75;;;15.90;43.50;;;;;;5128816;28;20043;-65
2022/01/12 00:35:38;;;;;;;3.50;3.20;;;15.90;43.60;;;;;;5129075;27;20050;-65
2022/01/12 00:38:03;;;;;;;5.13;4.22;;;15.80;43.50;;;;;;5129149;27;20047;-66
2022/01/12 00:40:29;;;;;;;4.43;4.03;;;15.90;43.60;;;;;;5128650;28;20046;-66
2022/01/12 00:42:55;;;;;;;4.00;3.42;;;15.80;43.60;;;;;;5128830;28;20040;-66
2022/01/12 00:45:21;;;;;;;4.15;3.75;;;15.80;43.60;;;;;;5128775;28;20077;-67
2022/01/12 00:47:47;;;;;;;4.32;3.92;;;15.80;43.60;;;;;;5129800;27;20498;-66
2022/01/12 00:50:13;;;;;;;3.83;3.38;;;15.80;43.70;;;;;;5128393;28;20039;-65
2022/01/12 00:52:39;;;;;;;5.75;3.50;;;15.80;43.70;;;;;;5128552;28;20036;-67
2022/01/12 00:55:06;;;;;;;5.13;3.72;;;15.80;43.70;;;;;;5129669;28;20031;-66
2022/01/12 00:57:32;;;;;;;5.47;3.88;;;15.80;43.70;;;;;;5129715;27;20429;-65
2022/01/12 00:59:58;;;;;;;6.00;3.88;;;15.80;43.80;;;;;;5128669;28;20031;-66
2022/01/12 01:02:27;;;;;;;4.05;2.85;;;15.70;43.80;;;;;;5128534;28;20486;-67
2022/01/12 01:04:52;;;;;;;4.22;3.25;;;15.70;43.90;;;;;;5128328;28;20085;-66
2022/01/12 01:07:18;;;;;;;4.05;3.00;;;15.80;44.00;;;;;;5128133;28;20043;-66
2022/01/12 01:09:54;;;;;;;3.15;2.95;;;15.90;43.90;;;;;;5128255;28;20072;-66
2022/01/12 01:12:20;;;;;;;4.13;3.00;;;16.10;43.70;;;;;;5128137;28;20039;-66
2022/01/12 01:14:59;;;;;;;3.70;2.40;;;16.30;43.40;;;;;;5129497;28;20031;-67
2022/01/12 01:25:52;;;;;;;2.38;1.95;;;17.70;41.30;;;;;;5127492;28;20502;-66
2022/01/12 01:28:18;;;;;;;2.60;2.05;;;18.10;40.70;;;;;;5129324;28;20040;-66
2022/01/12 01:30:45;;;;;;;2.50;2.17;;;18.40;40.30;;;;;;5127787;28;20035;-66
2022/01/12 01:33:15;;;;;;;2.42;1.83;;;18.70;39.90;;;;;;5129234;27;20104;-66
2022/01/12 01:35:44;;;;;;;2.80;1.73;;;18.90;39.50;;;;;;5127820;28;20042;-66
2022/01/12 01:38:10;;;;;;;2.95;1.45;;;19.10;39.20;;;;;;5119405;27;20071;-66
2022/01/12 01:40:38;;;;;;;2.22;1.70;;;19.30;38.90;;;;;;5115196;28;20082;-66
2022/01/12 01:54:03;;;;;;;2.92;1.65;;;20.10;37.70;;;;;;5128795;28;20047;-66
2022/01/12 01:56:32;;;;;;;2.45;1.83;;;20.10;37.40;;;;;;5128963;28;20045;-66
2022/01/12 01:58:57;;;;;;;2.95;2.08;;;20.20;37.30;;;;;;5128940;28;20101;-66
2022/01/12 02:01:26;;;;;;;2.58;1.80;;;20.10;37.20;;;;;;5128840;28;20497;-66
2022/01/12 02:03:58;;;;;;;3.42;2.00;;;20.20;37.10;;;;;;5129868;28;20049;-66
2022/01/12 02:06:25;;;;;;;2.80;2.05;;;20.20;37.20;;;;;;5128913;28;20047;-67
2022/01/12 02:08:51;;;;;;;2.35;2.15;;;20.10;37.10;;;;;;5128547;28;20042;-65
2022/01/12 02:11:16;;;;;;;3.40;1.98;;;20.10;37.20;;;;;;5128856;28;20118;-66
2022/01/12 02:13:42;;;;;;;3.40;1.70;;;20.00;37.30;;;;;;5128701;28;20047;-65
2022/01/12 02:16:08;;;;;;;3.10;2.08;;;19.90;37.30;;;;;;5129678;28;20181;-67
2022/01/12 02:19:04;;;;;;;2.08;1.85;;;19.80;37.30;;;;;;5129751;27;20522;-66
2022/01/12 02:40:49;;;;;;;3.03;2.10;;;20.20;36.70;;;;;;5130264;27;20357;-67
2022/01/12 02:43:26;;;;;;;2.72;2.25;;;20.30;36.50;;;;;;5129262;28;20126;-66
2022/01/12 02:54:05;;;;;;;3.33;2.30;;;20.60;36.30;;;;;;5130384;27;20690;-68
2022/01/12 02:56:33;;;;;;;2.55;2.35;;;20.60;36.10;;;;;;5129182;28;20096;-67
2022/01/12 02:59:00;;;;;;;2.97;1.73;;;20.60;36.00;;;;;;5128934;28;20043;-67
2022/01/12 03:04:12;;;;;;;3.22;2.20;;;20.60;36.10;;;;;;5089503;27;20363;-67
2022/01/12 03:06:39;;;;;;;2.80;2.45;;;20.60;36.10;;;;;;5088035;28;20067;-67
2022/01/12 03:09:08;;;;;;;3.60;2.58;;;20.50;36.10;;;;;;5089471;28;20040;-66
2022/01/12 03:11:37;;;;;;;2.92;2.40;;;20.50;36.20;;;;;;5087939;28;20519;-67
2022/01/12 03:14:04;;;;;;;3.15;2.22;;;20.50;36.20;;;;;;5089421;28;20051;-65
2022/01/12 03:16:29;;;;;;;3.33;2.20;;;20.40;36.30;;;;;;5088101;28;20178;-67
2022/01/12 03:19:00;;;;;;;4.55;2.50;;;20.30;36.30;;;;;;5089203;28;20567;-65
2022/01/12 03:21:29;;;;;;;3.40;2.30;;;20.30;36.40;;;;;;5087847;28;20040;-67
2022/01/12 03:23:55;;;;;;;3.38;2.90;;;20.30;36.50;;;;;;5087766;28;20127;-66
2022/01/12 03:26:22;;;;;;;3.88;2.53;;;20.20;36.50;;;;;;5087940;28;20043;-67
2022/01/12 03:28:53;;;;;;;2.95;2.60;;;20.20;36.50;;;;;;5089212;28;20395;-67
2022/01/12 03:31:23;;;;;;;3.30;2.95;;;20.20;36.50;;;;;;5089132;28;20055;-66
2022/01/12 03:33:55;;;;;;;2.92;2.72;;;20.20;36.50;;;;;;5089079;28;20060;-67
2022/01/12 03:39:07;;;;;;;3.75;3.35;;;20.30;36.40;;;;;;5109757;27;20692;-67
2022/01/12 03:41:35;;;;;;;3.05;2.33;;;20.30;36.40;;;;;;5091739;28;20040;-66
2022/01/12 03:44:03;;;;;;;4.15;2.95;;;20.40;36.40;;;;;;5091733;28;20093;-67
2022/01/12 03:49:16;;;;;;;3.45;2.85;;;20.40;36.30;;;;;;5089355;27;20352;-67
2022/01/12 03:51:43;;;;;;;3.75;3.03;;;20.50;36.40;;;;;;5088025;28;20514;-66
2022/01/12 03:54:09;;;;;;;3.58;3.17;;;20.50;36.30;;;;;;5089426;28;20072;-67
2022/01/12 03:56:35;;;;;;;3.70;2.70;;;20.50;36.20;;;;;;5087984;28;20119;-66
2022/01/12 03:59:01;;;;;;;3.13;2.80;;;20.60;36.10;;;;;;5087942;28;20492;-66
2022/01/12 04:01:27;;;;;;;3.10;2.83;;;20.60;36.00;;;;;;5088176;28;20419;-66
2022/01/12 04:04:03;;;;;;;3.53;2.83;;;20.70;35.90;;;;;;5087950;28;20131;-67
2022/01/12 04:09:15;;;;;;;3.30;3.00;;;20.80;35.80;;;;;;5087656;28;20506;-67
2022/01/12 04:11:41;;;;;;;3.53;3.22;;;20.80;35.70;;;;;;5087827;28;20043;-67
2022/01/12 04:14:08;;;;;;;3.47;2.85;;;20.80;35.70;;;;;;5087949;28;20415;-67
2022/01/12 04:16:38;;;;;;;3.83;3.33;;;20.80;35.70;;;;;;5087817;28;20372;-67
2022/01/12 04:19:07;;;;;;;4.57;3.28;;;20.80;35.80;;;;;;5087929;28;20044;-66
2022/01/12 04:21:42;;;;;;;4.18;3.13;;;20.80;35.70;;;;;;5087658;28;20476;-66
2022/01/12 04:24:08;;;;;;;4.72;3.08;;;20.70;35.70;;;;;;5087756;28;20395;-67
2022/01/12 04:26:37;;;;;;;4.18;3.00;;;20.70;35.80;;;;;;5087743;28;20115;-67
2022/01/12 04:29:04;;;;;;;3.92;3.45;;;20.70;35.90;;;;;;5087335;28;20044;-66
2022/01/12 04:31:30;;;;;;;4.00;3.55;;;20.70;36.00;;;;;;5087358;28;20047;-66
2022/01/12 04:33:56;;;;;;;3.65;3.33;;;20.60;36.10;;;;;;5087327;28;20115;-67
2022/01/12 04:36:21;;;;;;;3.88;3.47;;;20.50;36.10;;;;;;5087287;28;20048;-66
2022/01/12 04:38:47;;;;;;;4.35;3.45;;;20.50;36.30;;;;;;5087179;28;20055;-66
2022/01/12 04:41:13;;;;;;;4.32;3.33;;;20.40;36.30;;;;;;5088512;28;20044;-66
2022/01/12 04:43:41;;;;;;;4.22;3.75;;;20.40;36.40;;;;;;5088387;28;20040;-66
2022/01/12 04:51:33;;;;;;;4.72;3.63;;;20.30;36.50;;;;;;5130236;27;20423;-66
2022/01/12 04:53:59;;;;;;;4.85;3.65;;;20.30;36.60;;;;;;5128922;28;20043;-66
2022/01/12 04:56:28;;;;;;;4.43;3.58;;;20.30;36.60;;;;;;5130203;28;20035;-67
2022/01/12 04:58:54;;;;;;;3.88;3.42;;;20.30;36.60;;;;;;5130109;27;20432;-67
2022/01/12 05:01:26;;;;;;;5.57;4.13;;;20.30;36.60;;;;;;5128812;28;20039;-66
2022/01/12 05:15:05;;;;;;;4.28;3.83;;;20.40;36.50;;;;;;5128662;27;20043;-67
2022/01/12 05:17:31;;;;;;;5.57;3.28;;;20.40;36.40;;;;;;5129088;28;20039;-66
2022/01/12 05:19:57;;;;;;;5.20;3.55;;;20.50;36.50;;;;;;5129090;28;20407;-66
2022/01/12 05:22:22;;;;;;;5.45;4.18;;;20.50;36.40;;;;;;5129072;28;20486;-66
2022/01/12 05:24:48;;;;;;;4.40;3.70;;;20.60;36.40;;;;;;5128715;28;20475;-67
2022/01/12 05:27:13;;;;;;;4.47;3.70;;;20.60;36.20;;;;;;5128751;28;20040;-67
2022/01/12 05:29:39;;;;;;;4.03;3.63;;;20.70;36.20;;;;;;5129751;28;20067;-66
2022/01/12 05:32:06;;;;;;;5.38;3.70;;;20.70;36.10;;;;;;5128643;28;20038;-66
2022/01/12 05:34:32;;;;;;;3.78;3.05;;;20.70;36.00;;;;;;5129787;27;20035;-66
2022/01/12 05:36:57;;;;;;;3.97;3.40;;;20.70;36.00;;;;;;5128543;28;20039;-66
2022/01/12 05:39:23;;;;;;;5.70;3.47;;;20.70;36.00;;;;;;5129727;28;20075;-66
2022/01/12 05:41:51;;;;;;;3.65;3.08;;;20.80;36.00;;;;;;5129708;28;20122;-66
2022/01/12 05:44:17;;;;;;;5.03;4.00;;;20.70;35.90;;;;;;5128744;28;20039;-65
2022/01/12 05:46:46;;;;;;;4.03;2.90;;;20.80;36.00;;;;;;5128552;28;20543;-66
2022/01/12 05:49:34;;;;;;;4.13;3.30;;;20.70;36.00;;;;;;5129531;28;20036;-65
2022/01/12 05:51:57;;;;;;;3.78;3.10;;;20.70;36.00;;;;;;5127972;28;20103;-66
2022/01/12 05:54:25;;;;;;;4.32;3.58;;;20.70;36.00;;;;;;5128210;28;20055;-66
2022/01/12 05:56:53;;;;;;;3.95;3.55;;;20.70;36.10;;;;;;5128376;28;20189;-65
2022/01/12 05:59:21;;;;;;;4.78;3.60;;;20.60;36.10;;;;;;5129402;27;20039;-65
2022/01/12 06:01:47;;;;;;;5.15;3.25;;;20.60;36.20;;;;;;5129180;28;20031;-66
2022/01/12 06:04:13;;;;;;;4.43;3.42;;;20.50;36.30;;;;;;5129537;27;20501;-65
2022/01/12 06:06:38;;;;;;;4.05;3.40;;;20.40;36.40;;;;;;5129364;28;20407;-66
2022/01/12 06:09:07;;;;;;;3.20;2.90;;;20.30;36.50;;;;;;5128247;28;20094;-66
2022/01/12 06:11:33;;;;;;;4.15;3.53;;;20.30;36.60;;;;;;5128852;28;20126;-66
2022/01/12 06:13:59;;;;;;;3.72;3.00;;;20.20;36.70;;;;;;5129065;28;20114;-66
2022/01/12 06:16:26;;;;;;;3.42;3.13;;;20.20;36.70;;;;;;5128985;27;20035;-66
2022/01/12 06:18:52;;;;;;;3.42;2.75;;;20.10;36.80;;;;;;5129195;27;20036;-65
2022/01/12 06:21:17;;;;;;;3.92;3.17;;;20.00;36.90;;;;;;5126742;28;20051;-66
2022/01/12 06:23:43;;;;;;;3.83;3.03;;;20.00;37.10;;;;;;5114932;28;20031;-66
2022/01/12 06:26:09;;;;;;;4.05;3.35;;;19.90;37.20;;;;;;5115225;28;20443;-65
2022/01/12 06:28:38;;;;;;;3.95;3.20;;;19.80;37.20;;;;;;5114252;28;20039;-65
2022/01/12 06:31:11;;;;;;;3.60;3.13;;;19.80;37.30;;;;;;5113020;28;20051;-65
2022/01/12 06:33:39;;;;;;;5.53;2.75;;;19.80;37.40;;;;;;5113651;28;20058;-67
2022/01/12 06:36:05;;;;;;;6.43;3.33;;;19.70;37.70;;;;;;5113067;28;20043;-66
2022/01/12 06:38:30;;;;;;;4.78;2.83;;;19.70;38.40;;;;;;5112724;28;20035;-67
2022/01/12 06:40:56;;;;;;;5.22;3.10;;;19.70;39.00;;;;;;5112646;28;20047;-67
2022/01/12 06:43:22;;;;;;;4.85;3.38;;;19.60;39.50;;;;;;5109400;28;20041;-67
2022/01/12 06:45:50;;;;;;;6.88;4.57;;;19.50;39.50;;;;;;5110086;28;20125;-67
2022/01/12 06:48:16;;;;;;;6.25;4.72;;;19.50;39.30;;;;;;5110701;28;20039;-67
2022/01/12 06:50:42;;;;;;;6.18;4.45;;;19.50;39.10;;;;;;5109932;28;20491;-68
2022/01/12 06:53:07;;;;;;;4.53;4.03;;;19.50;39.10;;;;;;5108591;28;20032;-69
2022/01/12 06:55:33;;;;;;;4.28;3.40;;;19.40;39.10;;;;;;5106161;28;20077;-67
2022/01/12 06:57:58;;;;;;;4.28;3.63;;;19.50;39.10;;;;;;5106671;28;20088;-71
2022/01/12 07:00:24;;;;;;;3.97;3.22;;;19.50;39.30;;;;;;5108282;28;20403;-67
2022/01/12 07:02:50;;;;;;;6.35;3.53;;;19.50;39.50;;;;;;5107395;28;20483;-69
2022/01/12 07:05:15;;;;;;;6.63;3.40;;;19.60;39.60;;;;;;5098293;28;20691;-65
2022/01/12 07:07:41;;;;;;;5.10;3.80;;;19.60;39.50;;;;;;5089508;28;20681;-72
2022/01/12 07:10:08;;;;;;;5.97;4.38;;;19.70;39.60;;;;;;5104230;28;20055;-71
2022/01/12 07:12:33;;;;;;;5.03;3.97;;;19.80;39.40;;;;;;5105403;28;20677;-70
2022/01/12 07:14:59;;;;;;;7.38;5.35;;;19.80;38.90;;;;;;5095021;28;20036;-67
2022/01/12 07:17:24;;;;;;;8.30;6.30;;;19.90;38.60;;;;;;5093653;27;20135;-68
2022/01/12 07:19:50;;;;;;;11.18;7.43;;;19.90;38.10;;;;;;5111207;27;20046;-67
2022/01/12 07:22:15;;;;;;;12.60;7.25;;;19.80;37.40;;;;;;5108450;27;20067;-65
2022/01/12 07:24:41;;;;;;;13.25;8.73;;;19.80;37.30;;;;;;5109619;27;20117;-71
2022/01/12 07:27:07;;;;;;;10.10;7.57;;;19.90;37.20;;;;;;5109215;27;20092;-68
2022/01/12 07:29:33;;;;;;;11.30;8.55;;;19.90;36.80;;;;;;5109923;27;20119;-74
2022/01/12 07:31:59;;;;;;;10.38;8.80;;;19.90;36.50;;;;;;5098387;27;20216;-75
2022/01/12 07:34:24;;;;;;;10.15;7.20;;;19.90;36.20;;;;;;5097635;27;20041;-70
2022/01/12 07:36:50;;;;;;;9.55;6.43;;;19.90;36.00;;;;;;5099085;28;20368;-67
2022/01/12 07:39:19;;;;;;;23.85;7.93;;;20.00;36.10;;;;;;5094745;27;20395;-67
2022/01/12 07:41:44;;;;;;;10.35;4.60;;;20.30;36.10;;;;;;5095913;28;20133;-68
2022/01/12 07:44:10;;;;;;;7.32;4.35;;;20.70;35.90;;;;;;5096476;28;20062;-68
2022/01/12 07:46:36;;;;;;;5.93;4.40;;;21.00;35.90;;;;;;5098409;28;20055;-68
2022/01/12 07:49:02;;;;;;;5.50;3.88;;;21.20;36.20;;;;;;5097518;27;20482;-68
2022/01/12 07:51:27;;;;;;;5.05;4.00;;;21.20;36.40;;;;;;5094276;28;20445;-69
2022/01/12 07:53:53;;;;;;;5.05;3.85;;;21.20;36.70;;;;;;5112370;27;20039;-66
2022/01/12 07:56:21;;;;;;;6.78;3.28;;;21.20;36.80;;;;;;5094901;27;20696;-67
2022/01/12 07:58:46;;;;;;;15.88;4.18;;;21.30;36.80;;;;;;5096934;28;20038;-65
2022/01/12 08:01:12;;;;;;;5.25;2.70;;;21.20;36.80;;;;;;5096219;28;20044;-69
2022/01/12 08:03:38;;;;;;;3.78;3.15;;;21.20;37.00;;;;;;5096532;27;20146;-70
2022/01/12 08:06:04;;;;;;;9.32;2.80;;;21.10;37.30;;;;;;5102995;27;20126;-68
2022/01/12 08:08:29;;;;;;;8.05;2.53;;;21.00;37.70;;;;;;5095557;27;20047;-68
2022/01/12 08:10:55;;;;;;;8.18;2.88;;;20.90;37.90;;;;;;5110262;27;20067;-65
2022/01/12 08:13:22;;;;;;;5.15;2.63;;;20.80;38.00;;;;;;5094359;28;20048;-73
2022/01/12 08:15:47;;;;;;;4.68;2.20;;;20.70;38.20;;;;;;5110967;27;20077;-73
2022/01/12 08:18:13;;;;;;;5.28;2.95;;;20.60;38.70;;;;;;5094493;28;20060;-70
2022/01/12 08:20:39;;;;;;;7.53;2.45;;;20.40;39.00;;;;;;5091592;28;20035;-69
2022/01/12 08:23:04;;;;;;;8.65;2.65;;;20.40;39.30;;;;;;5092054;28;20040;-70
2022/01/12 08:25:30;;;;;;;6.53;3.13;;;20.20;39.50;;;;;;5091684;28;20675;-74
2022/01/12 08:27:56;;;;;;;8.57;3.55;;;20.10;39.80;;;;;;5093087;28;20050;-70
2022/01/12 08:30:28;;;;;;;5.47;2.95;;;20.00;40.10;;;;;;5107980;27;20040;-70
2022/01/12 08:32:55;;;;;;;4.15;2.63;;;19.80;40.20;;;;;;5098620;28;20054;-71
2022/01/12 08:35:21;;;;;;;4.30;2.67;;;19.70;40.50;;;;;;5093900;28;20055;-68
2022/01/12 08:37:47;;;;;;;5.20;2.92;;;19.60;40.80;;;;;;5108578;27;20048;-69
2022/01/12 08:40:15;;;;;;;8.25;3.22;;;19.50;41.10;;;;;;5089754;28;20048;-70
2022/01/12 08:42:44;;;;;;;3.42;2.53;;;19.50;41.40;;;;;;5085234;28;20052;-70
2022/01/12 08:45:10;;;;;;;5.25;2.78;;;19.40;41.80;;;;;;5102624;27;20070;-72
2022/01/12 08:47:36;;;;;;;14.00;2.67;;;19.40;42.10;;;;;;5108061;27;20368;-76
2022/01/12 08:50:06;;;;;;;5.32;2.08;;;19.30;42.60;;;;;;5092055;28;20042;-74
2022/01/12 08:52:31;;;;;;;3.65;3.05;;;19.30;42.90;;;;;;5093497;28;20043;-71
2022/01/12 08:54:58;;;;;;;7.97;2.42;;;19.30;43.00;;;;;;5092721;27;20034;-72
2022/01/12 08:57:24;;;;;;;6.45;2.63;;;19.30;43.00;;;;;;5091386;28;20114;-71
2022/01/12 08:59:49;;;;;;;5.97;2.17;;;19.20;43.10;;;;;;5094917;28;20489;-68
2022/01/12 09:02:15;;;;;;;7.03;2.40;;;19.20;43.10;;;;;;5089538;28;20481;-73
2022/01/12 09:04:43;;;;;;;4.07;1.63;;;19.30;43.20;;;;;;5095442;28;20044;-70
2022/01/12 09:07:09;;;;;;;5.72;1.77;;;19.30;43.20;;;;;;5091233;28;20039;-69
2022/01/12 09:09:35;;;;;;;4.60;1.77;;;19.20;43.20;;;;;;5092928;28;20510;-70
2022/01/12 09:12:05;;;;;;;4.30;2.15;;;19.20;43.20;;;;;;5089034;28;20568;-69
2022/01/12 09:14:34;;;;;;;3.20;1.88;;;19.20;43.20;;;;;;5093450;28;20040;-67
2022/01/12 09:17:00;;;;;;;3.67;1.90;;;19.20;43.20;;;;;;5091117;28;20044;-74
2022/01/12 09:19:27;;;;;;;6.47;4.03;;;19.20;43.20;;;;;;5093634;28;20044;-71
2022/01/12 09:21:54;;;;;;;5.28;2.78;;;19.10;42.80;;;;;;5095045;28;20040;-70
2022/01/12 09:24:20;;;;;;;3.05;1.80;;;19.10;42.80;;;;;;5098097;28;20050;-67
2022/01/12 09:26:50;;;;;;;5.40;2.35;;;19.00;42.90;;;;;;5094351;28;20040;-67
2022/01/12 09:29:15;;;;;;;7.20;1.98;;;19.00;42.90;;;;;;5094498;28;20090;-69
2022/01/12 09:31:41;;;;;;;2.47;1.58;;;19.00;43.00;;;;;;5094423;28;20044;-67
2022/01/12 09:34:07;;;;;;;6.05;2.17;;;19.00;43.10;;;;;;5094526;28;20559;-70
2022/01/12 09:36:33;;;;;;;8.10;3.72;;;19.00;43.10;;;;;;5093224;28;20043;-73
2022/01/12 09:39:00;;;;;;;5.78;2.60;;;18.90;43.10;;;;;;5093972;28;20069;-65
2022/01/12 09:41:29;;;;;;;4.88;2.55;;;18.90;43.30;;;;;;5107749;28;20043;-67
2022/01/12 09:43:57;;;;;;;4.93;2.40;;;18.90;43.40;;;;;;5094786;28;20682;-66
2022/01/12 09:46:24;;;;;;;4.90;2.25;;;18.90;43.50;;;;;;5095013;28;20040;-67
2022/01/12 09:48:50;;;;;;;5.68;2.20;;;18.90;43.50;;;;;;5094809;28;20100;-65
2022/01/12 09:51:16;;;;;;;5.07;1.98;;;18.90;43.50;;;;;;5093007;28;20475;-67
2022/01/12 09:53:44;;;;;;;4.93;2.50;;;18.90;43.50;;;;;;5097884;28;20075;-66
2022/01/12 09:58:57;;;;;;;5.00;1.80;;;19.00;43.60;;;;;;5107690;27;20476;-66
2022/01/12 10:04:16;;;;;;;4.93;2.05;;;19.00;43.60;;;;;;5093484;27;21195;-67
2022/01/12 10:06:46;;;;;;;4.30;1.45;;;19.00;43.60;;;;;;5072468;28;20056;-65
2022/01/12 10:09:13;;;;;;;3.63;2.10;;;19.00;43.40;;;;;;5111987;28;20044;-66
2022/01/12 10:11:48;;;;;;;5.30;1.40;;;19.10;43.40;;;;;;5076936;28;20133;-70
2022/01/12 10:14:14;;;;;;;4.65;1.42;;;19.10;43.40;;;;;;5107541;28;20048;-63
2022/01/12 10:16:53;;;;;;;4.57;1.65;;;19.10;43.50;;;;;;5109100;28;20047;-64
2022/01/12 10:19:28;;;;;;;6.30;1.48;;;19.10;43.60;;;;;;5077892;28;20052;-65
2022/01/12 10:21:54;;;;;;;4.72;1.85;;;19.10;43.70;;;;;;5077768;28;20052;-67
2022/01/12 10:24:20;;;;;;;4.55;1.35;;;19.20;43.80;;;;;;5072823;28;20040;-64
2022/01/12 10:26:47;;;;;;;5.35;1.30;;;19.20;43.80;;;;;;5076905;28;20044;-66
2022/01/12 10:29:15;;;;;;;5.90;1.42;;;19.20;43.80;;;;;;5075225;28;20048;-66
2022/01/12 10:31:43;;;;;;;6.40;1.40;;;19.20;44.00;;;;;;5072777;28;20045;-68
2022/01/12 10:34:08;;;;;;;4.35;1.05;;;19.20;44.00;;;;;;5087837;28;20043;-66
2022/01/12 10:36:43;;;;;;;3.90;1.33;;;19.20;44.10;;;;;;5070184;28;20443;-73
2022/01/12 10:39:12;;;;;;;6.95;1.15;;;19.20;44.10;;;;;;5078069;28;20095;-65
2022/01/12 10:42:01;;;;;;;10.63;2.00;;;19.20;44.10;;;;;;5075238;28;20444;-68
2022/01/12 10:44:30;;;;;;;6.07;1.58;;;19.20;44.20;;;;;;5077047;28;20044;-68
2022/01/12 10:49:47;;;;;;;3.87;1.30;;;19.20;44.40;;;;;;5089614;27;1848646;-67
2022/01/12 10:52:13;;;;;;;;;;;19.20;44.30;;;;;;5127067;27;20043;-69
2022/01/12 10:54:44;;;;;;;6.32;1.85;;;19.20;44.50;;;;;;5124973;27;19915;-68
2022/01/12 10:57:15;;;;;;;5.55;1.20;;;19.30;44.20;;;;;;5117635;27;20076;-68
2022/01/12 10:59:40;;;;;;;3.60;1.40;;;19.20;44.20;;;;;;5116927;27;20546;-73
2022/01/12 11:02:07;;;;;;;4.85;1.60;;;19.20;44.30;;;;;;5126577;27;20118;-73
2022/01/12 11:04:33;;;;;;;8.77;1.63;;;19.30;44.40;;;;;;5123774;27;20049;-67
2022/01/12 11:06:59;;;;;;;4.78;1.42;;;19.30;44.60;;;;;;5140200;27;20043;-70
2022/01/12 11:09:26;;;;;;;12.07;1.73;;;19.20;44.50;;;;;;5141342;27;21334;-69
2022/01/12 11:11:52;;;;;;;7.05;1.80;;;19.30;44.60;;;;;;5141732;27;20133;-69
2022/01/12 11:14:18;;;;;;;5.57;1.50;;;19.30;44.70;;;;;;5115349;27;20118;-73
2022/01/12 11:16:44;;;;;;;4.47;1.25;;;19.30;44.80;;;;;;5123441;27;20042;-73
2022/01/12 11:19:10;;;;;;;6.97;1.80;;;19.30;44.80;;;;;;5120746;27;20046;-74
2022/01/12 11:21:41;;;;;;;7.30;1.45;;;19.30;44.90;;;;;;5134214;27;20047;-71
2022/01/12 11:24:11;;;;;;;5.03;1.10;;;19.30;45.10;;;;;;5104316;27;20030;-75
2022/01/12 11:26:36;;;;;;;4.43;1.45;;;19.30;45.20;;;;;;5115169;27;20043;-70
2022/01/12 11:29:04;;;;;;;4.40;1.10;;;19.50;45.20;;;;;;5114100;27;20101;-69
2022/01/12 11:31:32;;;;;;;6.03;1.33;;;19.90;45.00;;;;;;5097837;27;20110;-71
2022/01/12 11:33:59;;;;;;;12.45;2.38;;;20.30;44.30;;;;;;5136505;27;20035;-69
2022/01/12 11:39:08;;;;;;;9.18;2.47;;;21.00;42.20;;;;;;5118635;27;20432;-70
2022/01/12 11:41:36;;;;;;;16.02;2.97;;;21.30;41.40;;;;;;5101903;28;20043;-70
2022/01/12 11:49:31;;;;;;;8.65;2.35;;;21.40;40.40;;;;;;5141883;27;1159380;-70
2022/01/12 11:51:58;;;;;;;21.30;4.80;;;21.90;39.00;;;;;;5140474;27;20049;-67
2022/01/12 11:54:36;;;;;;;7.15;2.00;;;22.20;38.70;;;;;;5143159;27;20038;-68
2022/01/12 11:57:06;;;;;;;9.57;1.75;;;22.50;38.00;;;;;;5141089;27;20042;-67
2022/01/12 12:02:35;;;;;;;6.47;1.45;;;23.20;37.70;;;;;;5080640;27;20156;-69
2022/01/12 12:05:11;;;;;;;4.40;1.30;;;23.60;37.80;;;;;;5084810;28;20562;-68
2022/01/12 12:07:55;;;;;;;5.90;1.48;;;23.90;36.80;;;;;;5066484;28;20035;-67
2022/01/12 12:10:23;;;;;;;6.32;1.27;;;24.20;36.10;;;;;;5068830;28;20072;-68
2022/01/12 12:12:52;;;;;;;9.25;1.55;;;24.50;35.70;;;;;;5069716;28;20044;-67
2022/01/12 12:15:19;;;;;;;5.07;0.90;;;24.70;35.40;;;;;;5066849;28;20051;-67
2022/01/12 12:17:45;;;;;;;4.03;1.25;;;25.00;35.20;;;;;;5066668;28;20072;-75
2022/01/12 12:20:14;;;;;;;4.28;1.35;;;25.00;34.20;;;;;;5070426;28;20514;-68
2022/01/12 12:22:42;;;;;;;6.78;1.13;;;24.90;33.70;;;;;;5082049;28;20116;-70
2022/01/12 12:25:12;;;;;;;6.47;1.40;;;24.70;33.60;;;;;;5075358;28;20076;-69
2022/01/12 12:27:42;;;;;;;5.25;1.35;;;24.50;33.60;;;;;;5064173;28;20033;-68
2022/01/12 12:30:11;;;;;;;5.78;0.98;;;24.50;33.80;;;;;;5063204;28;20037;-66
2022/01/12 12:32:46;;;;;;;5.60;1.10;;;24.40;34.10;;;;;;5061070;28;20552;-67
2022/01/12 12:35:15;;;;;;;6.55;1.00;;;24.60;34.10;;;;;;5059986;28;20068;-67
2022/01/12 12:37:43;;;;;;;5.32;0.90;;;24.90;33.90;;;;;;5063080;28;20679;-68
2022/01/12 12:45:56;;;;;;;5.93;1.58;;;25.80;32.70;;;;;;5104638;27;20615;-71
2022/01/12 12:48:25;;;;;;;10.10;1.40;;;25.60;31.90;;;;;;5102472;28;20101;-68
2022/01/12 12:51:01;;;;;;;4.03;0.93;;;25.40;32.20;;;;;;5101500;28;20088;-67
2022/01/12 12:53:28;;;;;;;5.63;1.40;;;25.40;32.50;;;;;;5102906;28;20078;-69
2022/01/12 12:55:54;;;;;;;10.32;2.63;;;25.40;32.70;;;;;;5103123;28;20052;-67
2022/01/12 12:58:24;;;;;;;6.18;1.23;;;25.30;32.60;;;;;;5100860;28;20038;-67
2022/01/12 13:00:49;;;;;;;7.60;1.77;;;25.10;32.60;;;;;;5101339;28;20104;-67
2022/01/12 13:03:15;;;;;;;9.40;1.45;;;24.80;33.00;;;;;;5104279;28;20040;-66
2022/01/12 13:05:41;;;;;;;7.18;1.00;;;24.70;33.40;;;;;;5102767;28;20089;-67
2022/01/12 13:08:08;;;;;;;5.43;1.20;;;24.50;33.60;;;;;;5102107;28;20043;-66
2022/01/12 13:10:34;;;;;;;5.00;0.70;;;24.40;34.10;;;;;;5102957;28;20036;-67
2022/01/12 13:13:09;;;;;;;5.18;0.77;;;24.10;34.10;;;;;;5105217;28;20050;-67
2022/01/12 13:15:38;;;;;;;3.30;0.57;;;23.90;34.60;;;;;;5102912;28;20035;-70
2022/01/12 13:18:07;;;;;;;4.07;0.70;;;23.60;35.10;;;;;;5105477;28;20055;-67
2022/01/12 13:21:07;;;;;;;4.85;0.40;;;23.40;35.60;;;;;;5103534;28;20316;-71
2022/01/12 13:23:23;;;;;;;2.33;0.40;;;23.20;36.70;;;;;;5083568;28;20036;-69
2022/01/12 13:25:53;;;;;;;3.55;0.65;;;23.00;36.40;;;;;;5100593;28;20052;-71
2022/01/12 13:28:19;;;;;;;1.55;0.50;;;22.70;36.70;;;;;;5106587;28;20028;-70
2022/01/12 13:30:51;;;;;;;2.70;0.45;;;22.50;37.00;;;;;;5098755;28;20052;-73
2022/01/12 13:33:24;;;;;;;2.05;0.57;;;22.30;37.50;;;;;;5100349;28;20078;-70
2022/01/12 13:35:50;;;;;;;2.65;0.50;;;22.10;38.00;;;;;;5102421;28;20062;-70
2022/01/12 13:38:30;;;;;;;2.67;0.45;;;21.90;38.40;;;;;;5101448;28;20032;-73
2022/01/12 13:41:13;;;;;;;2.67;0.50;;;21.60;38.80;;;;;;5102055;28;20120;-71
2022/01/12 13:43:41;;;;;;;2.50;0.40;;;21.50;39.10;;;;;;5099816;28;20388;-73
2022/01/12 13:46:14;;;;;;;1.40;0.55;;;21.30;39.50;;;;;;5100195;28;20039;-70
2022/01/12 13:48:53;;;;;;;2.55;0.40;;;21.10;39.90;;;;;;5103091;28;20051;-66
2022/01/12 13:51:26;;;;;;;2.47;0.40;;;20.90;40.10;;;;;;5102019;28;20028;-68
2022/01/12 13:54:02;;;;;;;1.70;0.40;;;20.80;40.30;;;;;;5110292;28;20050;-68
2022/01/12 13:56:38;;;;;;;2.05;0.55;;;20.60;40.70;;;;;;5089611;28;20044;-68
2022/01/12 13:59:05;;;;;;;1.88;0.38;;;20.40;41.00;;;;;;5084929;28;20082;-68
2022/01/12 14:01:33;;;;;;;2.50;0.40;;;20.30;41.40;;;;;;5087597;28;20051;-67
2022/01/12 14:04:09;;;;;;;1.98;0.47;;;20.20;41.60;;;;;;5088404;28;20048;-67
2022/01/12 14:06:38;;;;;;;3.08;0.40;;;20.10;41.80;;;;;;5088253;28;20039;-67
2022/01/12 14:09:21;;;;;;;3.05;0.70;;;20.00;42.10;;;;;;5086629;28;20399;-70
2022/01/12 14:11:50;;;;;;;3.10;0.70;;;19.90;42.20;;;;;;5087489;28;20049;-71
2022/01/12 14:14:17;;;;;;;1.77;0.35;;;19.80;42.40;;;;;;5087116;28;20086;-69
2022/01/12 14:16:42;;;;;;;2.83;0.60;;;19.80;42.60;;;;;;5087126;28;20040;-71
2022/01/12 14:19:09;;;;;;;1.63;0.50;;;19.70;42.80;;;;;;5088849;28;20043;-72
2022/01/12 14:21:39;;;;;;;1.98;0.38;;;19.60;43.00;;;;;;5085440;28;20491;-72
2022/01/12 14:24:08;;;;;;;3.80;0.77;;;19.60;43.20;;;;;;5086444;28;20036;-69
2022/01/12 14:26:39;;;;;;;3.47;0.80;;;19.50;43.10;;;;;;5087468;28;20604;-66
2022/01/12 14:29:09;;;;;;;3.53;0.85;;;19.40;43.10;;;;;;5089574;28;20040;-67
2022/01/12 14:31:36;;;;;;;2.03;0.70;;;19.40;43.20;;;;;;5089872;28;20395;-67
2022/01/12 14:34:02;;;;;;;6.70;0.60;;;19.30;43.30;;;;;;5089402;28;20048;-66
2022/01/12 14:36:28;;;;;;;2.10;0.45;;;19.30;43.40;;;;;;5089118;28;20055;-67